sensor_id;sensor_type;location;lat;lon;timestamp;temperature;humidity
32502;DHT22;18952;52.516;13.460;2024-01-11T00:00:49;-5.70;70.00
32502;DHT22;18952;52.516;13.460;2024-01-11T00:03:19;-5.80;71.00
32502;DHT22;18952;52.516;13.460;2024-01-11T00:05:47;-6.00;71.80
32502;DHT22;18952;52.516;13.460;2024-01-11T00:08:16;-6.20;72.50
32502;DHT22;18952;52.516;13.460;2024-01-11T00:10:43;-6.00;72.30
32502;DHT22;18952;52.516;13.460;2024-01-11T00:13:11;-6.00;71.80
32502;DHT22;18952;52.516;13.460;2024-01-11T00:15:38;-6.10;72.40
32502;DHT22;18952;52.516;13.460;2024-01-11T00:18:06;-6.30;72.80
32502;DHT22;18952;52.516;13.460;2024-01-11T00:20:33;-6.30;72.90
32502;DHT22;18952;52.516;13.460;2024-01-11T00:23:01;-6.20;72.90
32502;DHT22;18952;52.516;13.460;2024-01-11T00:25:28;-6.00;72.00
32502;DHT22;18952;52.516;13.460;2024-01-11T00:27:56;-5.80;71.30
32502;DHT22;18952;52.516;13.460;2024-01-11T00:30:26;-5.80;71.10
32502;DHT22;18952;52.516;13.460;2024-01-11T00:32:53;-5.70;71.10
32502;DHT22;18952;52.516;13.460;2024-01-11T00:35:20;-5.80;71.50
32502;DHT22;18952;52.516;13.460;2024-01-11T00:37:47;-5.70;71.40
32502;DHT22;18952;52.516;13.460;2024-01-11T00:40:15;-5.60;70.80
32502;DHT22;18952;52.516;13.460;2024-01-11T00:42:42;-5.60;71.10
32502;DHT22;18952;52.516;13.460;2024-01-11T00:45:10;-5.60;71.30
32502;DHT22;18952;52.516;13.460;2024-01-11T00:47:38;-5.50;71.10
32502;DHT22;18952;52.516;13.460;2024-01-11T00:50:06;-5.60;71.60
32502;DHT22;18952;52.516;13.460;2024-01-11T00:52:34;-5.60;71.50
32502;DHT22;18952;52.516;13.460;2024-01-11T00:55:01;-5.50;71.50
32502;DHT22;18952;52.516;13.460;2024-01-11T00:57:28;-5.60;71.70
32502;DHT22;18952;52.516;13.460;2024-01-11T00:59:57;-5.70;72.50
32502;DHT22;18952;52.516;13.460;2024-01-11T01:02:26;-5.60;72.40
32502;DHT22;18952;52.516;13.460;2024-01-11T01:04:53;-5.60;72.30
32502;DHT22;18952;52.516;13.460;2024-01-11T01:07:20;-5.30;71.50
32502;DHT22;18952;52.516;13.460;2024-01-11T01:09:48;-5.30;71.50
32502;DHT22;18952;52.516;13.460;2024-01-11T01:12:15;-5.20;70.90
32502;DHT22;18952;52.516;13.460;2024-01-11T01:14:43;-5.40;71.20
32502;DHT22;18952;52.516;13.460;2024-01-11T01:17:12;-5.40;71.70
32502;DHT22;18952;52.516;13.460;2024-01-11T01:19:44;-5.50;71.60
32502;DHT22;18952;52.516;13.460;2024-01-11T01:22:11;-5.40;71.30
32502;DHT22;18952;52.516;13.460;2024-01-11T01:24:37;-5.40;71.30
32502;DHT22;18952;52.516;13.460;2024-01-11T01:27:04;-5.30;71.40
32502;DHT22;18952;52.516;13.460;2024-01-11T01:29:32;-5.40;71.80
32502;DHT22;18952;52.516;13.460;2024-01-11T01:32:01;-5.50;72.30
32502;DHT22;18952;52.516;13.460;2024-01-11T01:34:28;-5.50;72.20
32502;DHT22;18952;52.516;13.460;2024-01-11T01:36:56;-5.40;71.90
32502;DHT22;18952;52.516;13.460;2024-01-11T01:39:23;-5.30;71.60
32502;DHT22;18952;52.516;13.460;2024-01-11T01:41:57;-5.40;71.60
32502;DHT22;18952;52.516;13.460;2024-01-11T01:44:25;-5.30;71.60
32502;DHT22;18952;52.516;13.460;2024-01-11T01:46:57;-5.30;71.60
32502;DHT22;18952;52.516;13.460;2024-01-11T01:49:25;-5.40;71.60
32502;DHT22;18952;52.516;13.460;2024-01-11T01:51:55;-5.40;71.70
32502;DHT22;18952;52.516;13.460;2024-01-11T01:54:24;-5.50;71.80
32502;DHT22;18952;52.516;13.460;2024-01-11T01:56:53;-5.40;71.90
32502;DHT22;18952;52.516;13.460;2024-01-11T01:59:20;-5.30;71.60
32502;DHT22;18952;52.516;13.460;2024-01-11T02:01:49;-5.40;71.50
32502;DHT22;18952;52.516;13.460;2024-01-11T02:04:17;-5.50;71.80
32502;DHT22;18952;52.516;13.460;2024-01-11T02:06:47;-5.40;71.30
32502;DHT22;18952;52.516;13.460;2024-01-11T02:09:19;-5.60;71.80
32502;DHT22;18952;52.516;13.460;2024-01-11T02:11:48;-5.50;71.80
32502;DHT22;18952;52.516;13.460;2024-01-11T02:14:16;-5.50;72.40
32502;DHT22;18952;52.516;13.460;2024-01-11T02:16:45;-5.80;74.30
32502;DHT22;18952;52.516;13.460;2024-01-11T02:19:14;-5.70;74.40
32502;DHT22;18952;52.516;13.460;2024-01-11T02:21:43;-5.60;74.60
32502;DHT22;18952;52.516;13.460;2024-01-11T02:24:10;-5.30;74.50
32502;DHT22;18952;52.516;13.460;2024-01-11T02:27:00;-5.20;73.40
32502;DHT22;18952;52.516;13.460;2024-01-11T02:29:30;-5.20;73.90
32502;DHT22;18952;52.516;13.460;2024-01-11T02:31:59;-5.20;74.10
32502;DHT22;18952;52.516;13.460;2024-01-11T02:34:28;-5.40;75.30
32502;DHT22;18952;52.516;13.460;2024-01-11T02:36:57;-5.50;76.30
32502;DHT22;18952;52.516;13.460;2024-01-11T02:39:25;-5.50;76.50
32502;DHT22;18952;52.516;13.460;2024-01-11T02:41:56;-5.30;76.40
32502;DHT22;18952;52.516;13.460;2024-01-11T02:44:24;-5.30;76.30
32502;DHT22;18952;52.516;13.460;2024-01-11T02:46:53;-5.20;76.10
32502;DHT22;18952;52.516;13.460;2024-01-11T02:49:20;-5.20;76.30
32502;DHT22;18952;52.516;13.460;2024-01-11T02:51:47;-5.10;75.70
32502;DHT22;18952;52.516;13.460;2024-01-11T02:54:16;-5.10;75.90
32502;DHT22;18952;52.516;13.460;2024-01-11T02:56:42;-5.10;75.80
32502;DHT22;18952;52.516;13.460;2024-01-11T02:59:09;-5.30;76.80
32502;DHT22;18952;52.516;13.460;2024-01-11T03:01:41;-5.30;77.00
32502;DHT22;18952;52.516;13.460;2024-01-11T03:04:11;-5.20;76.70
32502;DHT22;18952;52.516;13.460;2024-01-11T03:06:38;-5.20;76.60
32502;DHT22;18952;52.516;13.460;2024-01-11T03:09:07;-5.10;76.60
32502;DHT22;18952;52.516;13.460;2024-01-11T03:11:33;-5.20;76.20
32502;DHT22;18952;52.516;13.460;2024-01-11T03:14:00;-5.20;76.50
32502;DHT22;18952;52.516;13.460;2024-01-11T03:16:30;-5.10;75.60
32502;DHT22;18952;52.516;13.460;2024-01-11T03:18:57;-5.20;75.40
32502;DHT22;18952;52.516;13.460;2024-01-11T03:21:27;-5.20;75.40
32502;DHT22;18952;52.516;13.460;2024-01-11T03:23:55;-5.30;76.10
32502;DHT22;18952;52.516;13.460;2024-01-11T03:26:22;-5.20;75.80
32502;DHT22;18952;52.516;13.460;2024-01-11T03:28:50;-5.40;75.40
32502;DHT22;18952;52.516;13.460;2024-01-11T03:31:18;-5.30;75.60
32502;DHT22;18952;52.516;13.460;2024-01-11T03:33:46;-5.30;75.30
32502;DHT22;18952;52.516;13.460;2024-01-11T03:36:14;-5.30;75.40
32502;DHT22;18952;52.516;13.460;2024-01-11T03:38:41;-5.30;75.10
32502;DHT22;18952;52.516;13.460;2024-01-11T03:41:10;-5.20;75.00
32502;DHT22;18952;52.516;13.460;2024-01-11T03:43:37;-5.30;75.00
32502;DHT22;18952;52.516;13.460;2024-01-11T03:46:05;-5.20;75.10
32502;DHT22;18952;52.516;13.460;2024-01-11T03:48:32;-5.20;75.10
32502;DHT22;18952;52.516;13.460;2024-01-11T03:51:00;-5.20;75.50
32502;DHT22;18952;52.516;13.460;2024-01-11T03:53:28;-5.40;76.00
32502;DHT22;18952;52.516;13.460;2024-01-11T03:55:56;-5.40;76.60
32502;DHT22;18952;52.516;13.460;2024-01-11T03:58:23;-5.20;76.00
32502;DHT22;18952;52.516;13.460;2024-01-11T04:00:55;-5.00;75.00
32502;DHT22;18952;52.516;13.460;2024-01-11T04:03:23;-5.10;75.00
32502;DHT22;18952;52.516;13.460;2024-01-11T04:05:50;-5.10;75.30
32502;DHT22;18952;52.516;13.460;2024-01-11T04:08:18;-5.00;75.80
32502;DHT22;18952;52.516;13.460;2024-01-11T04:10:46;-5.00;76.20
32502;DHT22;18952;52.516;13.460;2024-01-11T04:13:13;-4.80;76.10
32502;DHT22;18952;52.516;13.460;2024-01-11T04:15:40;-4.80;76.50
32502;DHT22;18952;52.516;13.460;2024-01-11T04:18:08;-4.90;76.40
32502;DHT22;18952;52.516;13.460;2024-01-11T04:20:35;-4.80;76.80
32502;DHT22;18952;52.516;13.460;2024-01-11T04:23:02;-4.80;76.50
32502;DHT22;18952;52.516;13.460;2024-01-11T04:25:31;-4.80;76.60
32502;DHT22;18952;52.516;13.460;2024-01-11T04:27:59;-4.70;76.10
32502;DHT22;18952;52.516;13.460;2024-01-11T04:30:25;-4.60;76.00
32502;DHT22;18952;52.516;13.460;2024-01-11T04:32:55;-4.70;76.50
32502;DHT22;18952;52.516;13.460;2024-01-11T04:35:22;-4.70;77.00
32502;DHT22;18952;52.516;13.460;2024-01-11T04:37:49;-4.60;76.80
32502;DHT22;18952;52.516;13.460;2024-01-11T04:40:17;-4.60;77.10
32502;DHT22;18952;52.516;13.460;2024-01-11T04:42:44;-4.60;77.30
32502;DHT22;18952;52.516;13.460;2024-01-11T04:45:12;-4.70;78.00
32502;DHT22;18952;52.516;13.460;2024-01-11T04:47:39;-4.70;78.80
32502;DHT22;18952;52.516;13.460;2024-01-11T04:50:07;-4.60;78.70
32502;DHT22;18952;52.516;13.460;2024-01-11T04:52:35;-4.40;78.00
32502;DHT22;18952;52.516;13.460;2024-01-11T04:55:05;-4.40;78.30
32502;DHT22;18952;52.516;13.460;2024-01-11T04:57:32;-4.30;78.20
32502;DHT22;18952;52.516;13.460;2024-01-11T05:00:00;-4.30;78.10
32502;DHT22;18952;52.516;13.460;2024-01-11T05:02:29;-4.30;78.50
32502;DHT22;18952;52.516;13.460;2024-01-11T05:04:56;-4.40;79.00
32502;DHT22;18952;52.516;13.460;2024-01-11T05:07:23;-4.30;79.20
32502;DHT22;18952;52.516;13.460;2024-01-11T05:09:52;-4.20;79.20
32502;DHT22;18952;52.516;13.460;2024-01-11T05:12:18;-4.10;78.80
32502;DHT22;18952;52.516;13.460;2024-01-11T05:14:45;-4.10;78.80
32502;DHT22;18952;52.516;13.460;2024-01-11T05:17:13;-4.10;79.00
32502;DHT22;18952;52.516;13.460;2024-01-11T05:19:40;-3.90;78.70
32502;DHT22;18952;52.516;13.460;2024-01-11T05:22:08;-3.90;78.60
32502;DHT22;18952;52.516;13.460;2024-01-11T05:24:35;-3.80;78.70
32502;DHT22;18952;52.516;13.460;2024-01-11T05:27:03;-3.90;79.00
32502;DHT22;18952;52.516;13.460;2024-01-11T05:29:30;-3.80;79.10
32502;DHT22;18952;52.516;13.460;2024-01-11T05:31:58;-3.70;79.00
32502;DHT22;18952;52.516;13.460;2024-01-11T05:34:26;-3.80;79.10
32502;DHT22;18952;52.516;13.460;2024-01-11T05:36:54;-3.80;79.10
32502;DHT22;18952;52.516;13.460;2024-01-11T05:39:23;-3.70;78.80
32502;DHT22;18952;52.516;13.460;2024-01-11T05:41:51;-3.60;79.10
32502;DHT22;18952;52.516;13.460;2024-01-11T05:44:18;-3.70;79.20
32502;DHT22;18952;52.516;13.460;2024-01-11T05:46:46;-3.60;78.90
32502;DHT22;18952;52.516;13.460;2024-01-11T05:49:14;-3.60;79.30
32502;DHT22;18952;52.516;13.460;2024-01-11T05:51:42;-3.60;79.80
32502;DHT22;18952;52.516;13.460;2024-01-11T05:54:10;-3.60;79.80
32502;DHT22;18952;52.516;13.460;2024-01-11T05:56:37;-3.70;80.00
32502;DHT22;18952;52.516;13.460;2024-01-11T05:59:06;-3.50;79.80
32502;DHT22;18952;52.516;13.460;2024-01-11T06:01:32;-3.60;80.00
32502;DHT22;18952;52.516;13.460;2024-01-11T06:04:01;-3.50;80.00
32502;DHT22;18952;52.516;13.460;2024-01-11T06:06:28;-3.40;79.60
32502;DHT22;18952;52.516;13.460;2024-01-11T06:08:56;-3.40;79.20
32502;DHT22;18952;52.516;13.460;2024-01-11T06:11:23;-3.30;79.40
32502;DHT22;18952;52.516;13.460;2024-01-11T06:13:51;-3.20;79.60
32502;DHT22;18952;52.516;13.460;2024-01-11T06:16:19;-3.30;79.50
32502;DHT22;18952;52.516;13.460;2024-01-11T06:18:46;-3.30;79.70
32502;DHT22;18952;52.516;13.460;2024-01-11T06:21:14;-3.20;80.40
32502;DHT22;18952;52.516;13.460;2024-01-11T06:23:45;-3.20;80.30
32502;DHT22;18952;52.516;13.460;2024-01-11T06:26:14;-3.30;80.30
32502;DHT22;18952;52.516;13.460;2024-01-11T06:28:40;-3.20;80.60
32502;DHT22;18952;52.516;13.460;2024-01-11T06:31:09;-3.20;80.80
32502;DHT22;18952;52.516;13.460;2024-01-11T06:33:38;-3.30;81.10
32502;DHT22;18952;52.516;13.460;2024-01-11T06:36:07;-3.10;80.80
32502;DHT22;18952;52.516;13.460;2024-01-11T06:38:34;-3.10;80.80
32502;DHT22;18952;52.516;13.460;2024-01-11T06:41:05;-3.10;80.70
32502;DHT22;18952;52.516;13.460;2024-01-11T06:43:32;-3.20;80.90
32502;DHT22;18952;52.516;13.460;2024-01-11T06:46:06;-3.10;80.90
32502;DHT22;18952;52.516;13.460;2024-01-11T06:48:33;-3.10;81.40
32502;DHT22;18952;52.516;13.460;2024-01-11T06:51:02;-3.10;81.20
32502;DHT22;18952;52.516;13.460;2024-01-11T06:53:29;-3.10;81.20
32502;DHT22;18952;52.516;13.460;2024-01-11T06:55:58;-3.10;81.70
32502;DHT22;18952;52.516;13.460;2024-01-11T06:58:24;-3.10;81.90
32502;DHT22;18952;52.516;13.460;2024-01-11T07:00:52;-3.00;81.50
32502;DHT22;18952;52.516;13.460;2024-01-11T07:03:19;-3.00;81.30
32502;DHT22;18952;52.516;13.460;2024-01-11T07:05:48;-2.90;81.30
32502;DHT22;18952;52.516;13.460;2024-01-11T07:08:16;-2.90;81.50
32502;DHT22;18952;52.516;13.460;2024-01-11T07:10:48;-2.90;82.00
32502;DHT22;18952;52.516;13.460;2024-01-11T07:13:19;-2.90;81.90
32502;DHT22;18952;52.516;13.460;2024-01-11T07:15:47;-2.90;82.00
32502;DHT22;18952;52.516;13.460;2024-01-11T07:18:19;-2.70;82.10
32502;DHT22;18952;52.516;13.460;2024-01-11T07:20:49;-2.70;81.20
32502;DHT22;18952;52.516;13.460;2024-01-11T07:23:18;-2.70;81.50
32502;DHT22;18952;52.516;13.460;2024-01-11T07:25:51;-2.80;82.00
32502;DHT22;18952;52.516;13.460;2024-01-11T07:28:19;-2.70;81.80
32502;DHT22;18952;52.516;13.460;2024-01-11T07:30:46;-2.70;81.70
32502;DHT22;18952;52.516;13.460;2024-01-11T07:33:14;-2.70;81.90
32502;DHT22;18952;52.516;13.460;2024-01-11T07:35:42;-2.80;82.70
32502;DHT22;18952;52.516;13.460;2024-01-11T07:38:09;-2.80;82.10
32502;DHT22;18952;52.516;13.460;2024-01-11T07:40:37;-2.80;82.50
32502;DHT22;18952;52.516;13.460;2024-01-11T07:43:09;-2.70;82.50
32502;DHT22;18952;52.516;13.460;2024-01-11T07:45:35;-2.60;82.20
32502;DHT22;18952;52.516;13.460;2024-01-11T07:48:05;-2.60;82.40
32502;DHT22;18952;52.516;13.460;2024-01-11T07:50:33;-2.50;82.00
32502;DHT22;18952;52.516;13.460;2024-01-11T07:53:01;-2.50;82.20
32502;DHT22;18952;52.516;13.460;2024-01-11T07:55:28;-2.60;82.70
32502;DHT22;18952;52.516;13.460;2024-01-11T07:57:56;-2.60;82.30
32502;DHT22;18952;52.516;13.460;2024-01-11T08:00:26;-2.50;82.60
32502;DHT22;18952;52.516;13.460;2024-01-11T08:02:55;-2.50;82.70
32502;DHT22;18952;52.516;13.460;2024-01-11T08:05:22;-2.60;83.30
32502;DHT22;18952;52.516;13.460;2024-01-11T08:07:49;-2.50;82.70
32502;DHT22;18952;52.516;13.460;2024-01-11T08:10:17;-2.40;82.80
32502;DHT22;18952;52.516;13.460;2024-01-11T08:12:44;-2.40;82.90
32502;DHT22;18952;52.516;13.460;2024-01-11T08:15:13;-2.30;82.30
32502;DHT22;18952;52.516;13.460;2024-01-11T08:17:44;-2.20;81.90
32502;DHT22;18952;52.516;13.460;2024-01-11T08:20:15;-2.30;82.50
32502;DHT22;18952;52.516;13.460;2024-01-11T08:22:43;-2.30;82.40
32502;DHT22;18952;52.516;13.460;2024-01-11T08:25:11;-2.30;82.60
32502;DHT22;18952;52.516;13.460;2024-01-11T08:27:38;-2.40;82.30
32502;DHT22;18952;52.516;13.460;2024-01-11T08:30:07;-2.30;82.50
32502;DHT22;18952;52.516;13.460;2024-01-11T08:32:37;-2.30;82.30
32502;DHT22;18952;52.516;13.460;2024-01-11T08:35:08;-2.30;82.30
32502;DHT22;18952;52.516;13.460;2024-01-11T08:37:37;-2.20;82.40
32502;DHT22;18952;52.516;13.460;2024-01-11T08:40:05;-2.30;82.40
32502;DHT22;18952;52.516;13.460;2024-01-11T08:42:33;-2.40;82.70
32502;DHT22;18952;52.516;13.460;2024-01-11T08:45:00;-2.30;82.50
32502;DHT22;18952;52.516;13.460;2024-01-11T08:47:29;-2.30;82.50
32502;DHT22;18952;52.516;13.460;2024-01-11T08:49:57;-2.40;82.90
32502;DHT22;18952;52.516;13.460;2024-01-11T08:52:24;-2.20;82.30
32502;DHT22;18952;52.516;13.460;2024-01-11T08:54:51;-2.20;82.10
32502;DHT22;18952;52.516;13.460;2024-01-11T08:57:19;-2.20;82.30
32502;DHT22;18952;52.516;13.460;2024-01-11T08:59:49;-2.30;82.40
32502;DHT22;18952;52.516;13.460;2024-01-11T09:02:20;-2.30;82.60
32502;DHT22;18952;52.516;13.460;2024-01-11T09:04:55;-2.20;82.80
32502;DHT22;18952;52.516;13.460;2024-01-11T09:07:22;-2.20;82.60
32502;DHT22;18952;52.516;13.460;2024-01-11T09:09:49;-2.20;82.90
32502;DHT22;18952;52.516;13.460;2024-01-11T09:12:25;-2.20;82.50
32502;DHT22;18952;52.516;13.460;2024-01-11T09:14:53;-2.30;83.80
32502;DHT22;18952;52.516;13.460;2024-01-11T09:17:20;-2.30;83.30
32502;DHT22;18952;52.516;13.460;2024-01-11T09:19:46;-2.20;83.30
32502;DHT22;18952;52.516;13.460;2024-01-11T09:22:14;-2.10;82.90
32502;DHT22;18952;52.516;13.460;2024-01-11T09:24:41;-2.20;83.10
32502;DHT22;18952;52.516;13.460;2024-01-11T09:27:13;-2.10;83.00
32502;DHT22;18952;52.516;13.460;2024-01-11T09:29:44;-2.00;82.50
32502;DHT22;18952;52.516;13.460;2024-01-11T09:32:12;-2.00;82.60
32502;DHT22;18952;52.516;13.460;2024-01-11T09:34:40;-1.90;82.00
32502;DHT22;18952;52.516;13.460;2024-01-11T09:37:07;-1.80;82.30
32502;DHT22;18952;52.516;13.460;2024-01-11T09:39:34;-1.70;81.50
32502;DHT22;18952;52.516;13.460;2024-01-11T09:42:07;-1.90;82.60
32502;DHT22;18952;52.516;13.460;2024-01-11T09:44:36;-1.80;82.40
32502;DHT22;18952;52.516;13.460;2024-01-11T09:47:04;-1.80;81.90
32502;DHT22;18952;52.516;13.460;2024-01-11T09:49:33;-1.80;82.80
32502;DHT22;18952;52.516;13.460;2024-01-11T09:52:08;-1.70;81.70
32502;DHT22;18952;52.516;13.460;2024-01-11T09:54:36;-1.80;82.10
32502;DHT22;18952;52.516;13.460;2024-01-11T09:57:04;-1.60;81.40
32502;DHT22;18952;52.516;13.460;2024-01-11T09:59:33;-1.80;82.00
32502;DHT22;18952;52.516;13.460;2024-01-11T10:02:07;-1.70;81.80
32502;DHT22;18952;52.516;13.460;2024-01-11T10:04:37;-1.60;81.40
32502;DHT22;18952;52.516;13.460;2024-01-11T10:07:09;-1.80;81.90
32502;DHT22;18952;52.516;13.460;2024-01-11T10:09:36;-1.70;81.80
32502;DHT22;18952;52.516;13.460;2024-01-11T10:12:07;-1.80;82.40
32502;DHT22;18952;52.516;13.460;2024-01-11T10:14:34;-1.80;82.60
32502;DHT22;18952;52.516;13.460;2024-01-11T10:17:03;-1.80;82.40
32502;DHT22;18952;52.516;13.460;2024-01-11T10:19:30;-1.80;82.50
32502;DHT22;18952;52.516;13.460;2024-01-11T10:21:59;-1.80;82.80
32502;DHT22;18952;52.516;13.460;2024-01-11T10:24:26;-1.80;82.50
32502;DHT22;18952;52.516;13.460;2024-01-11T10:26:58;-1.70;82.60
32502;DHT22;18952;52.516;13.460;2024-01-11T10:29:32;-1.70;82.40
32502;DHT22;18952;52.516;13.460;2024-01-11T10:32:00;-1.60;82.60
32502;DHT22;18952;52.516;13.460;2024-01-11T10:34:27;-1.60;82.30
32502;DHT22;18952;52.516;13.460;2024-01-11T10:36:56;-1.50;81.90
32502;DHT22;18952;52.516;13.460;2024-01-11T10:39:25;-1.50;81.60
32502;DHT22;18952;52.516;13.460;2024-01-11T10:42:05;-1.60;82.40
32502;DHT22;18952;52.516;13.460;2024-01-11T10:44:35;-1.60;82.50
32502;DHT22;18952;52.516;13.460;2024-01-11T10:47:04;-1.60;82.40
32502;DHT22;18952;52.516;13.460;2024-01-11T10:49:33;-1.50;82.30
32502;DHT22;18952;52.516;13.460;2024-01-11T10:52:04;-1.40;82.00
32502;DHT22;18952;52.516;13.460;2024-01-11T10:54:38;-1.40;82.30
32502;DHT22;18952;52.516;13.460;2024-01-11T10:57:07;-1.30;81.80
32502;DHT22;18952;52.516;13.460;2024-01-11T10:59:36;-1.20;81.90
32502;DHT22;18952;52.516;13.460;2024-01-11T11:02:09;-1.10;81.30
32502;DHT22;18952;52.516;13.460;2024-01-11T11:04:39;-1.20;81.20
32502;DHT22;18952;52.516;13.460;2024-01-11T11:07:07;-1.30;81.50
32502;DHT22;18952;52.516;13.460;2024-01-11T11:09:35;-1.30;82.30
32502;DHT22;18952;52.516;13.460;2024-01-11T11:12:06;-1.10;81.60
32502;DHT22;18952;52.516;13.460;2024-01-11T11:14:34;-1.30;81.90
32502;DHT22;18952;52.516;13.460;2024-01-11T11:17:03;-1.20;81.80
32502;DHT22;18952;52.516;13.460;2024-01-11T11:19:30;-1.10;81.70
32502;DHT22;18952;52.516;13.460;2024-01-11T11:22:02;-1.10;81.60
32502;DHT22;18952;52.516;13.460;2024-01-11T11:24:34;-1.20;81.80
32502;DHT22;18952;52.516;13.460;2024-01-11T11:27:02;-1.20;81.90
32502;DHT22;18952;52.516;13.460;2024-01-11T11:29:28;-1.10;82.00
32502;DHT22;18952;52.516;13.460;2024-01-11T11:31:59;-1.00;82.00
32502;DHT22;18952;52.516;13.460;2024-01-11T11:34:53;-1.00;81.70
32502;DHT22;18952;52.516;13.460;2024-01-11T11:37:23;-1.10;82.30
32502;DHT22;18952;52.516;13.460;2024-01-11T11:39:50;-1.10;82.40
32502;DHT22;18952;52.516;13.460;2024-01-11T11:42:18;-1.00;82.40
32502;DHT22;18952;52.516;13.460;2024-01-11T11:44:53;-0.90;82.20
32502;DHT22;18952;52.516;13.460;2024-01-11T11:47:21;-0.80;81.70
32502;DHT22;18952;52.516;13.460;2024-01-11T11:50:10;-0.80;81.70
32502;DHT22;18952;52.516;13.460;2024-01-11T11:52:40;-0.80;82.00
32502;DHT22;18952;52.516;13.460;2024-01-11T11:55:08;-0.70;81.70
32502;DHT22;18952;52.516;13.460;2024-01-11T11:57:37;-0.80;81.70
32502;DHT22;18952;52.516;13.460;2024-01-11T12:00:06;-0.80;81.90
32502;DHT22;18952;52.516;13.460;2024-01-11T12:02:35;-0.80;82.40
32502;DHT22;18952;52.516;13.460;2024-01-11T12:05:02;-1.00;83.40
32502;DHT22;18952;52.516;13.460;2024-01-11T12:07:31;-1.00;83.30
32502;DHT22;18952;52.516;13.460;2024-01-11T12:09:58;-0.90;83.60
32502;DHT22;18952;52.516;13.460;2024-01-11T12:12:25;-0.90;83.40
32502;DHT22;18952;52.516;13.460;2024-01-11T12:14:54;-0.80;82.80
32502;DHT22;18952;52.516;13.460;2024-01-11T12:17:21;-0.70;82.40
32502;DHT22;18952;52.516;13.460;2024-01-11T12:19:48;-0.70;82.20
32502;DHT22;18952;52.516;13.460;2024-01-11T12:22:20;-0.70;82.50
32502;DHT22;18952;52.516;13.460;2024-01-11T12:24:47;-0.80;82.60
32502;DHT22;18952;52.516;13.460;2024-01-11T12:27:16;-0.80;83.40
32502;DHT22;18952;52.516;13.460;2024-01-11T12:29:43;-0.70;83.30
32502;DHT22;18952;52.516;13.460;2024-01-11T12:32:22;-0.70;83.30
32502;DHT22;18952;52.516;13.460;2024-01-11T12:34:49;-0.60;82.90
32502;DHT22;18952;52.516;13.460;2024-01-11T12:37:20;-0.80;83.60
32502;DHT22;18952;52.516;13.460;2024-01-11T12:39:48;-0.60;83.10
32502;DHT22;18952;52.516;13.460;2024-01-11T12:42:17;-0.70;83.30
32502;DHT22;18952;52.516;13.460;2024-01-11T12:44:44;-0.60;83.20
32502;DHT22;18952;52.516;13.460;2024-01-11T12:47:14;-0.50;82.80
32502;DHT22;18952;52.516;13.460;2024-01-11T12:49:45;-0.50;82.40
32502;DHT22;18952;52.516;13.460;2024-01-11T12:52:20;-0.40;82.40
32502;DHT22;18952;52.516;13.460;2024-01-11T12:54:47;-0.40;82.40
32502;DHT22;18952;52.516;13.460;2024-01-11T12:57:19;-0.40;81.90
32502;DHT22;18952;52.516;13.460;2024-01-11T12:59:50;-0.40;82.60
32502;DHT22;18952;52.516;13.460;2024-01-11T13:02:19;-0.30;82.00
32502;DHT22;18952;52.516;13.460;2024-01-11T13:04:51;-0.30;82.00
32502;DHT22;18952;52.516;13.460;2024-01-11T13:07:25;-0.40;82.80
32502;DHT22;18952;52.516;13.460;2024-01-11T13:09:55;-0.30;82.60
32502;DHT22;18952;52.516;13.460;2024-01-11T13:12:22;-0.20;81.70
32502;DHT22;18952;52.516;13.460;2024-01-11T13:14:50;-0.10;81.60
32502;DHT22;18952;52.516;13.460;2024-01-11T13:17:18;0.00;81.70
32502;DHT22;18952;52.516;13.460;2024-01-11T13:19:46;0.00;81.20
32502;DHT22;18952;52.516;13.460;2024-01-11T13:22:13;0.10;81.30
32502;DHT22;18952;52.516;13.460;2024-01-11T13:24:41;0.10;81.40
32502;DHT22;18952;52.516;13.460;2024-01-11T13:27:09;0.00;81.50
32502;DHT22;18952;52.516;13.460;2024-01-11T13:29:37;-0.10;81.70
32502;DHT22;18952;52.516;13.460;2024-01-11T13:32:04;-0.20;81.70
32502;DHT22;18952;52.516;13.460;2024-01-11T13:34:31;-0.20;81.90
32502;DHT22;18952;52.516;13.460;2024-01-11T13:37:00;-0.20;82.10
32502;DHT22;18952;52.516;13.460;2024-01-11T13:39:30;-0.20;82.00
32502;DHT22;18952;52.516;13.460;2024-01-11T13:41:58;-0.20;82.30
32502;DHT22;18952;52.516;13.460;2024-01-11T13:44:25;-0.20;82.30
32502;DHT22;18952;52.516;13.460;2024-01-11T13:46:55;-0.20;81.70
32502;DHT22;18952;52.516;13.460;2024-01-11T13:49:26;-0.10;81.70
32502;DHT22;18952;52.516;13.460;2024-01-11T13:51:56;-0.20;81.40
32502;DHT22;18952;52.516;13.460;2024-01-11T13:54:28;-0.20;81.90
32502;DHT22;18952;52.516;13.460;2024-01-11T13:56:55;-0.20;81.60
32502;DHT22;18952;52.516;13.460;2024-01-11T13:59:22;-0.40;82.40
32502;DHT22;18952;52.516;13.460;2024-01-11T14:01:49;-0.40;82.70
32502;DHT22;18952;52.516;13.460;2024-01-11T14:04:16;-0.30;82.60
32502;DHT22;18952;52.516;13.460;2024-01-11T14:06:44;-0.30;82.40
32502;DHT22;18952;52.516;13.460;2024-01-11T14:09:12;-0.20;81.90
32502;DHT22;18952;52.516;13.460;2024-01-11T14:11:43;-0.20;81.40
32502;DHT22;18952;52.516;13.460;2024-01-11T14:14:12;-0.30;82.00
32502;DHT22;18952;52.516;13.460;2024-01-11T14:16:39;-0.40;82.30
32502;DHT22;18952;52.516;13.460;2024-01-11T14:19:07;-0.40;82.50
32502;DHT22;18952;52.516;13.460;2024-01-11T14:21:34;-0.30;82.40
32502;DHT22;18952;52.516;13.460;2024-01-11T14:24:03;-0.40;82.60
32502;DHT22;18952;52.516;13.460;2024-01-11T14:26:36;-0.50;83.00
32502;DHT22;18952;52.516;13.460;2024-01-11T14:29:07;-0.50;83.20
32502;DHT22;18952;52.516;13.460;2024-01-11T14:31:36;-0.50;83.40
32502;DHT22;18952;52.516;13.460;2024-01-11T14:34:10;-0.40;83.00
32502;DHT22;18952;52.516;13.460;2024-01-11T14:36:42;-0.40;82.90
32502;DHT22;18952;52.516;13.460;2024-01-11T14:39:10;-0.40;83.10
32502;DHT22;18952;52.516;13.460;2024-01-11T14:41:38;-0.50;83.70
32502;DHT22;18952;52.516;13.460;2024-01-11T14:44:09;-0.60;84.00
32502;DHT22;18952;52.516;13.460;2024-01-11T14:46:40;-0.60;84.30
32502;DHT22;18952;52.516;13.460;2024-01-11T14:49:11;-0.50;83.80
32502;DHT22;18952;52.516;13.460;2024-01-11T14:51:40;-0.50;84.00
32502;DHT22;18952;52.516;13.460;2024-01-11T14:54:07;-0.40;83.80
32502;DHT22;18952;52.516;13.460;2024-01-11T14:56:36;-0.40;83.40
32502;DHT22;18952;52.516;13.460;2024-01-11T14:59:03;-0.40;83.20
32502;DHT22;18952;52.516;13.460;2024-01-11T15:01:30;-0.50;83.40
32502;DHT22;18952;52.516;13.460;2024-01-11T15:03:58;-0.40;83.20
32502;DHT22;18952;52.516;13.460;2024-01-11T15:06:27;-0.40;83.20
32502;DHT22;18952;52.516;13.460;2024-01-11T15:08:55;-0.40;83.30
32502;DHT22;18952;52.516;13.460;2024-01-11T15:11:22;-0.40;83.20
32502;DHT22;18952;52.516;13.460;2024-01-11T15:13:49;-0.30;83.10
32502;DHT22;18952;52.516;13.460;2024-01-11T15:16:16;-0.50;83.20
32502;DHT22;18952;52.516;13.460;2024-01-11T15:18:43;-0.40;83.30
32502;DHT22;18952;52.516;13.460;2024-01-11T15:21:10;-0.40;83.80
32502;DHT22;18952;52.516;13.460;2024-01-11T15:23:38;-0.50;83.60